createdAt,value
2018-04-13T00:00:59.345Z,15.73
2018-04-13T00:03:30.709Z,17.13
2018-04-13T00:06:01.754Z,17.97
2018-04-13T00:08:33.893Z,16.97
2018-04-13T00:11:05.278Z,16.80
2018-04-13T00:13:36.954Z,17.10
2018-04-13T00:16:09.065Z,18.50
2018-04-13T00:18:40.454Z,18.07
2018-04-13T00:21:11.827Z,17.13
2018-04-13T00:23:43.957Z,17.60
2018-04-13T00:26:15.587Z,16.10
2018-04-13T00:28:46.945Z,16.70
2018-04-13T00:31:18.293Z,17.47
2018-04-13T00:33:49.695Z,16.40
2018-04-13T00:36:21.977Z,15.53
2018-04-13T00:38:53.634Z,17.07
2018-04-13T00:41:24.975Z,16.13
2018-04-13T00:43:56.367Z,16.60
2018-04-13T00:46:27.765Z,16.70
2018-04-13T00:48:59.950Z,16.47
2018-04-13T00:51:31.318Z,16.07
2018-04-13T00:54:02.759Z,15.67
2018-04-13T00:56:34.150Z,15.97
2018-04-13T00:59:06.293Z,15.43
2018-04-13T01:01:37.721Z,15.80
2018-04-13T01:04:09.848Z,16.30
2018-04-13T01:06:41.212Z,16.23
2018-04-13T01:09:12.843Z,15.33
2018-04-13T01:11:44.502Z,16.23
2018-04-13T01:14:15.869Z,15.67
2018-04-13T01:16:47.268Z,16.57
2018-04-13T01:19:18.613Z,15.93
2018-04-13T01:21:49.977Z,15.40
2018-04-13T01:24:21.326Z,17.97
2018-04-13T01:26:54.239Z,16.73
2018-04-13T01:29:25.592Z,18.27
2018-04-13T01:31:56.962Z,17.30
2018-04-13T01:34:29.881Z,16.80
2018-04-13T01:37:01.214Z,18.07
2018-04-13T01:39:33.355Z,15.93
2018-04-13T01:42:04.734Z,16.70
2018-04-13T01:44:36.837Z,16.47
2018-04-13T01:47:08.258Z,16.57
2018-04-13T01:49:39.646Z,16.53
2018-04-13T01:52:11.092Z,17.30
2018-04-13T01:54:42.445Z,17.00
2018-04-13T01:57:14.607Z,16.00
2018-04-13T01:59:45.934Z,16.43
2018-04-13T02:02:17.306Z,16.40
2018-04-13T02:04:48.634Z,17.43
2018-04-13T02:07:20.077Z,17.13
2018-04-13T02:09:52.197Z,17.30
2018-04-13T02:12:23.620Z,18.13
2018-04-13T02:14:55.157Z,18.47
2018-04-13T02:17:27.351Z,20.20
2018-04-13T02:19:58.716Z,20.83
2018-04-13T02:22:30.193Z,19.80
2018-04-13T02:25:01.929Z,19.03
2018-04-13T02:27:33.258Z,19.90
2018-04-13T02:30:04.149Z,18.70
2018-04-13T02:32:36.262Z,19.17
2018-04-13T02:35:07.629Z,17.60
2018-04-13T02:37:39.010Z,17.30
2018-04-13T02:40:10.391Z,17.47
2018-04-13T02:42:41.599Z,17.70
2018-04-13T02:45:13.045Z,19.67
2018-04-13T02:47:45.483Z,20.00
2018-04-13T02:50:16.818Z,18.27
2018-04-13T02:52:48.185Z,19.03
2018-04-13T02:55:19.392Z,18.53
2018-04-13T02:57:50.624Z,15.57
2018-04-13T03:00:22.033Z,15.70
2018-04-13T03:02:54.003Z,16.30
2018-04-13T03:05:26.027Z,17.63
2018-04-13T03:07:58.151Z,16.90
2018-04-13T03:10:29.408Z,16.67
2018-04-13T03:13:00.773Z,19.03
2018-04-13T03:15:31.999Z,18.90
2018-04-13T03:18:03.321Z,20.30
2018-04-13T03:20:34.713Z,20.27
2018-04-13T03:23:05.945Z,18.27
2018-04-13T03:25:37.701Z,18.90
2018-04-13T03:28:09.120Z,19.57
2018-04-13T03:30:40.604Z,18.10
2018-04-13T03:33:11.997Z,20.80
2018-04-13T03:35:43.349Z,20.60
2018-04-13T03:38:14.814Z,20.60
2018-04-13T03:40:47.004Z,20.90
2018-04-13T03:43:18.349Z,25.33
2018-04-13T03:45:49.682Z,24.57
2018-04-13T03:48:21.042Z,25.37
2018-04-13T03:50:52.358Z,25.33
2018-04-13T03:56:01.730Z,25.43
2018-04-13T03:58:33.895Z,25.83
2018-04-13T04:01:05.110Z,27.20
2018-04-13T04:03:36.488Z,29.30
2018-04-13T04:06:08.043Z,28.63
2018-04-13T04:08:39.380Z,28.47
2018-04-13T04:11:10.748Z,28.10
2018-04-13T04:13:42.155Z,26.93
2018-04-13T04:16:13.590Z,23.97
2018-04-13T04:18:45.112Z,24.97
2018-04-13T04:21:33.381Z,25.77
2018-04-13T04:24:21.430Z,25.33
2018-04-13T04:26:52.761Z,23.00
2018-04-13T04:29:24.148Z,24.13
2018-04-13T04:31:55.482Z,23.80
2018-04-13T04:34:26.854Z,23.80
2018-04-13T04:36:58.193Z,23.87
2018-04-13T04:39:29.573Z,24.23
2018-04-13T04:42:01.753Z,24.47
2018-04-13T04:44:33.870Z,22.67
2018-04-13T04:47:05.331Z,22.47
2018-04-13T04:49:37.026Z,24.17
2018-04-13T04:52:08.439Z,23.27
2018-04-13T04:54:39.770Z,23.43
2018-04-13T04:57:11.233Z,24.53
2018-04-13T04:59:42.631Z,25.07
2018-04-13T05:02:14.943Z,24.73
2018-04-13T05:04:46.442Z,22.40
2018-04-13T05:07:18.081Z,23.60
2018-04-13T05:09:49.446Z,22.17
2018-04-13T05:12:21.653Z,23.43
2018-04-13T05:14:54.122Z,24.27
2018-04-13T05:17:26.295Z,25.63
2018-04-13T05:19:57.661Z,25.93
2018-04-13T05:22:29.850Z,26.70
2018-04-13T05:25:01.371Z,27.50
2018-04-13T05:27:34.444Z,28.07
2018-04-13T05:30:05.564Z,28.23
2018-04-13T05:32:37.126Z,27.53
2018-04-13T05:35:09.282Z,28.23
2018-04-13T05:37:41.385Z,52.30
2018-04-13T05:40:12.818Z,34.23
2018-04-13T05:42:44.273Z,32.20
2018-04-13T05:45:16.434Z,32.73
2018-04-13T05:47:48.683Z,31.03
2018-04-13T05:50:20.052Z,32.63
2018-04-13T05:52:52.187Z,31.67
2018-04-13T05:55:23.328Z,26.77
2018-04-13T05:57:54.889Z,25.10
2018-04-13T06:00:26.427Z,27.60
2018-04-13T06:02:57.912Z,24.07
2018-04-13T06:05:29.461Z,27.57
2018-04-13T06:08:00.923Z,25.67
2018-04-13T06:10:33.154Z,25.63
2018-04-13T06:13:04.887Z,25.40
2018-04-13T06:15:36.574Z,25.63
2018-04-13T06:18:08.032Z,24.67
2018-04-13T06:20:39.423Z,25.80
2018-04-13T06:23:11.660Z,25.00
2018-04-13T06:25:43.223Z,26.43
2018-04-13T06:28:14.582Z,26.03
2018-04-13T06:30:46.090Z,24.40
2018-04-13T06:33:17.465Z,25.77
2018-04-13T06:38:25.924Z,26.63
2018-04-13T06:40:57.294Z,29.00
2018-04-13T06:43:29.444Z,28.30
2018-04-13T06:46:01.611Z,28.10
2018-04-13T06:48:33.099Z,29.43
2018-04-13T06:51:04.429Z,27.30
2018-04-13T06:53:36.999Z,28.73
2018-04-13T06:56:08.368Z,29.10
2018-04-13T06:58:40.115Z,27.83
2018-04-13T07:01:11.583Z,25.80
2018-04-13T07:03:43.148Z,26.03
2018-04-13T07:08:52.650Z,26.47
2018-04-13T07:11:24.034Z,27.37
2018-04-13T07:13:55.500Z,25.50
2018-04-13T07:16:27.780Z,31.53
2018-04-13T07:18:59.170Z,33.37
2018-04-13T07:21:30.866Z,31.40
2018-04-13T07:24:04.068Z,33.93
2018-04-13T07:26:36.276Z,33.13
2018-04-13T07:29:07.669Z,36.07
2018-04-13T07:31:39.437Z,33.33
2018-04-13T07:34:11.938Z,34.13
2018-04-13T07:36:43.671Z,31.20
2018-04-13T07:39:15.107Z,31.50
2018-04-13T07:41:47.186Z,32.07
2018-04-13T07:44:18.776Z,32.10
2018-04-13T07:46:50.634Z,31.07
2018-04-13T07:49:21.816Z,32.47
2018-04-13T07:51:53.235Z,32.03
2018-04-13T07:54:24.647Z,32.33
2018-04-13T07:56:56.869Z,34.27
2018-04-13T07:59:28.403Z,35.97
2018-04-13T08:02:00.519Z,35.03
2018-04-13T08:04:32.664Z,36.97
2018-04-13T08:07:04.544Z,37.60
2018-04-13T08:09:36.056Z,37.07
2018-04-13T08:12:07.559Z,37.67
2018-04-13T08:14:40.620Z,39.47
2018-04-13T08:17:12.068Z,37.53
2018-04-13T08:19:43.632Z,40.30
2018-04-13T08:22:15.271Z,41.67
2018-04-13T08:24:46.665Z,41.40
2018-04-13T08:27:18.844Z,42.43
2018-04-13T08:29:51.106Z,43.87
2018-04-13T08:32:22.901Z,44.10
2018-04-13T08:34:54.444Z,39.87
2018-04-13T08:37:26.844Z,40.43
2018-04-13T08:39:58.964Z,40.80
2018-04-13T08:42:30.229Z,41.60
2018-04-13T08:45:02.424Z,40.87
2018-04-13T08:47:33.993Z,41.87
2018-04-13T08:50:04.714Z,41.70
2018-04-13T08:52:39.394Z,39.90
2018-04-13T08:55:11.886Z,40.53
2018-04-13T08:57:44.116Z,41.53
2018-04-13T09:00:15.626Z,42.87
2018-04-13T09:02:47.812Z,40.53
2018-04-13T09:05:20.030Z,41.47
2018-04-13T09:07:51.697Z,40.60
2018-04-13T09:10:23.378Z,41.27
2018-04-13T09:12:55.912Z,40.30
2018-04-13T09:15:27.293Z,42.20
2018-04-13T09:17:58.732Z,41.40
2018-04-13T09:20:31.306Z,43.00
2018-04-13T09:23:03.088Z,43.80
2018-04-13T09:25:34.467Z,41.70
2018-04-13T09:28:05.921Z,40.33
2018-04-13T09:30:38.025Z,41.50
2018-04-13T09:33:09.397Z,38.13
2018-04-13T09:35:41.570Z,34.90
2018-04-13T09:38:13.140Z,35.83
2018-04-13T09:40:44.549Z,36.63
2018-04-13T09:43:16.173Z,36.83
2018-04-13T09:45:47.571Z,36.77
2018-04-13T09:48:18.994Z,33.70
2018-04-13T09:50:50.379Z,32.50
2018-04-13T09:53:22.536Z,38.97
2018-04-13T09:55:53.959Z,36.43
2018-04-13T09:58:25.336Z,31.93
2018-04-13T10:01:00.465Z,31.83
2018-04-13T10:06:32.575Z,29.05
2018-04-13T10:09:04.053Z,26.33
2018-04-13T10:11:35.623Z,25.23
2018-04-13T10:14:07.979Z,24.30
2018-04-13T10:16:39.318Z,45.63
2018-04-13T10:19:10.851Z,22.80
2018-04-13T10:21:42.466Z,22.30
2018-04-13T10:24:14.003Z,20.93
2018-04-13T10:26:45.466Z,22.93
2018-04-13T10:29:17.572Z,21.33
2018-04-13T10:31:49.184Z,22.03
2018-04-13T10:34:20.505Z,21.70
2018-04-13T10:36:52.671Z,22.17
2018-04-13T10:39:23.865Z,20.07
2018-04-13T10:41:55.254Z,20.90
2018-04-13T10:44:26.609Z,19.40
2018-04-13T10:46:58.011Z,20.07
2018-04-13T10:49:29.363Z,19.73
2018-04-13T10:52:00.833Z,20.20
2018-04-13T10:54:32.299Z,19.53
2018-04-13T10:57:03.982Z,22.53
2018-04-13T10:59:35.662Z,21.57
2018-04-13T11:02:07.343Z,20.73
2018-04-13T11:04:38.734Z,20.10
2018-04-13T11:07:10.972Z,21.43
2018-04-13T11:09:42.370Z,22.07
2018-04-13T11:12:14.559Z,23.47
2018-04-13T11:14:46.739Z,23.50
2018-04-13T11:17:18.191Z,22.87
2018-04-13T11:19:49.662Z,24.20
2018-04-13T11:22:22.152Z,23.00
2018-04-13T11:24:53.597Z,21.70
2018-04-13T11:27:25.181Z,22.93
2018-04-13T11:29:56.537Z,22.47
2018-04-13T11:32:28.857Z,21.60
2018-04-13T11:35:00.997Z,22.33
2018-04-13T11:37:32.517Z,19.23
2018-04-13T11:40:03.781Z,18.80
2018-04-13T11:42:35.066Z,17.73
2018-04-13T11:45:07.192Z,17.87
2018-04-13T11:47:38.549Z,17.43
2018-04-13T11:50:10.838Z,15.37
2018-04-13T11:52:42.290Z,16.30
2018-04-13T11:55:13.729Z,16.97
2018-04-13T11:57:45.113Z,15.90
2018-04-13T12:00:16.468Z,15.63
2018-04-13T12:02:47.770Z,13.07
2018-04-13T12:05:19.133Z,13.93
2018-04-13T12:07:51.269Z,12.77
2018-04-13T12:10:22.714Z,11.27
2018-04-13T12:12:54.149Z,11.87
2018-04-13T12:15:25.508Z,12.30
2018-04-13T12:17:57.026Z,10.60
2018-04-13T12:20:29.465Z,8.97
2018-04-13T12:23:01.314Z,9.37
2018-04-13T12:25:32.443Z,9.93
2018-04-13T12:28:03.855Z,9.43
2018-04-13T12:30:35.243Z,9.70
2018-04-13T12:33:06.618Z,9.87
2018-04-13T12:35:38.014Z,9.83
2018-04-13T12:38:10.350Z,10.57
2018-04-13T12:40:41.763Z,10.23
2018-04-13T12:43:13.502Z,10.30
2018-04-13T12:45:44.939Z,10.80
2018-04-13T12:48:17.080Z,11.40
2018-04-13T12:50:48.482Z,10.77
2018-04-13T12:53:19.929Z,10.87
2018-04-13T12:55:51.424Z,10.73
2018-04-13T12:58:24.140Z,9.93
2018-04-13T13:00:56.396Z,10.10
2018-04-13T13:03:28.660Z,10.50
2018-04-13T13:06:00.167Z,10.97
2018-04-13T13:08:31.717Z,10.43
2018-04-13T13:11:04.233Z,10.60
2018-04-13T13:13:36.135Z,11.53
2018-04-13T13:16:08.600Z,11.10
2018-04-13T13:18:40.394Z,11.57
2018-04-13T13:21:11.669Z,11.37
2018-04-13T13:23:43.083Z,12.07
2018-04-13T13:26:15.231Z,12.70
2018-04-13T13:28:47.421Z,12.57
2018-04-13T13:31:19.560Z,12.27
2018-04-13T13:33:50.986Z,12.80
2018-04-13T13:36:22.329Z,12.47
2018-04-13T13:38:53.758Z,12.50
2018-04-13T13:41:25.455Z,14.00
2018-04-13T13:43:56.926Z,14.13
2018-04-13T13:46:29.178Z,12.87
2018-04-13T13:49:00.768Z,13.20
2018-04-13T13:51:32.982Z,12.33
2018-04-13T13:54:04.666Z,11.90
2018-04-13T13:56:36.157Z,12.10
2018-04-13T13:59:08.572Z,12.07
2018-04-13T14:01:39.980Z,10.80
2018-04-13T14:04:11.367Z,11.03
2018-04-13T14:06:42.941Z,11.47
2018-04-13T14:09:14.537Z,10.57
2018-04-13T14:11:46.244Z,10.43
2018-04-13T14:14:17.712Z,11.20
2018-04-13T14:16:49.411Z,10.80
2018-04-13T14:19:21.592Z,11.10
2018-04-13T14:21:52.972Z,11.27
2018-04-13T14:24:24.432Z,10.83
2018-04-13T14:26:55.957Z,10.63
2018-04-13T14:29:28.295Z,11.50
2018-04-13T14:31:59.579Z,11.67
2018-04-13T14:34:32.422Z,12.53
2018-04-13T14:37:04.085Z,12.10
2018-04-13T14:39:35.522Z,12.43
2018-04-13T14:42:06.773Z,13.07
2018-04-13T14:44:38.960Z,14.97
2018-04-13T14:47:10.496Z,14.87
2018-04-13T14:49:41.876Z,15.50
2018-04-13T14:52:13.262Z,16.87
2018-04-13T14:54:44.602Z,16.37
2018-04-13T14:57:19.058Z,16.93
2018-04-13T14:59:51.217Z,17.13
2018-04-13T15:02:22.608Z,16.37
2018-04-13T15:04:54.148Z,17.13
2018-04-13T15:07:27.113Z,16.70
2018-04-13T15:10:00.012Z,15.70
2018-04-13T15:12:31.367Z,16.60
2018-04-13T15:15:03.502Z,17.20
2018-04-13T15:17:34.899Z,16.40
2018-04-13T15:20:07.266Z,16.00
2018-04-13T15:22:40.232Z,15.87
2018-04-13T15:25:12.202Z,14.97
2018-04-13T15:27:44.451Z,15.63
2018-04-13T15:30:15.963Z,15.10
2018-04-13T15:32:48.108Z,15.57
2018-04-13T15:35:19.505Z,15.63
2018-04-13T15:37:50.861Z,14.33
2018-04-13T15:40:22.321Z,14.97
2018-04-13T15:42:53.942Z,15.77
2018-04-13T15:45:25.674Z,15.00
2018-04-13T15:47:57.037Z,14.70
2018-04-13T15:50:29.232Z,16.03
2018-04-13T15:53:00.518Z,15.00
2018-04-13T15:55:31.883Z,15.63
2018-04-13T15:58:04.079Z,14.13
2018-04-13T16:00:36.760Z,15.60
2018-04-13T16:03:08.881Z,14.83
2018-04-13T16:05:40.265Z,14.87
2018-04-13T16:08:12.389Z,14.60
2018-04-13T16:10:43.787Z,14.40
2018-04-13T16:13:15.158Z,13.70
2018-04-13T16:15:46.559Z,14.10
2018-04-13T16:18:18.246Z,13.63
2018-04-13T16:20:50.545Z,15.13
2018-04-13T16:23:22.677Z,15.07
2018-04-13T16:25:54.873Z,14.33
2018-04-13T16:28:26.245Z,14.13
2018-04-13T16:30:57.649Z,14.13
2018-04-13T16:33:29.849Z,13.47
2018-04-13T16:36:01.393Z,13.40
2018-04-13T16:38:32.592Z,14.47
2018-04-13T16:41:04.574Z,14.00
2018-04-13T16:43:35.702Z,13.90
2018-04-13T16:46:07.876Z,13.87
2018-04-13T16:48:39.315Z,13.97
2018-04-13T16:51:17.135Z,14.70
2018-04-13T16:53:48.736Z,14.33
2018-04-13T16:56:20.322Z,15.00
2018-04-13T16:58:51.702Z,14.90
2018-04-13T17:01:23.868Z,14.93
2018-04-13T17:03:56.946Z,14.47
2018-04-13T17:06:28.285Z,14.70
2018-04-13T17:08:59.650Z,13.80
2018-04-13T17:11:32.546Z,14.53
2018-04-13T17:14:04.024Z,13.77
2018-04-13T17:16:36.206Z,13.50
2018-04-13T17:19:08.378Z,13.30
2018-04-13T17:21:39.726Z,13.80
2018-04-13T17:24:11.170Z,14.43
2018-04-13T17:26:42.554Z,14.63
2018-04-13T17:29:14.087Z,15.20
2018-04-13T17:31:46.872Z,14.13
2018-04-13T17:34:19.085Z,14.23
2018-04-13T17:36:50.505Z,13.87
2018-04-13T17:39:22.055Z,13.93
2018-04-13T17:41:53.491Z,13.13
2018-04-13T17:44:24.981Z,14.03
2018-04-13T17:46:56.442Z,14.97
2018-04-13T17:49:28.024Z,13.97
2018-04-13T17:52:00.130Z,13.87
2018-04-13T17:54:31.507Z,14.93
2018-04-13T17:57:02.908Z,14.17
2018-04-13T17:59:35.043Z,14.33
2018-04-13T18:02:06.518Z,14.40
2018-04-13T18:04:38.756Z,14.83
2018-04-13T18:07:10.197Z,15.70
2018-04-13T18:09:41.538Z,14.80
2018-04-13T18:12:12.947Z,15.67
2018-04-13T18:14:44.309Z,15.77
2018-04-13T18:17:16.453Z,14.97
2018-04-13T18:19:47.911Z,15.70
2018-04-13T18:22:19.310Z,14.93
2018-04-13T18:24:50.752Z,14.87
2018-04-13T18:27:22.148Z,15.67
2018-04-13T18:29:55.006Z,15.93
2018-04-13T18:32:26.491Z,15.47
2018-04-13T18:34:58.044Z,15.23
2018-04-13T18:37:29.447Z,15.50
2018-04-13T18:40:01.659Z,15.53
2018-04-13T18:42:33.784Z,15.50
2018-04-13T18:45:04.190Z,16.17
2018-04-13T18:47:36.128Z,15.63
2018-04-13T18:50:07.310Z,14.83
2018-04-13T18:52:38.658Z,14.83
2018-04-13T18:55:10.883Z,16.43
2018-04-13T18:57:43.211Z,15.60
2018-04-13T19:00:14.583Z,16.50
2018-04-13T19:02:45.961Z,16.07
2018-04-13T19:05:17.799Z,16.17
2018-04-13T19:07:49.375Z,16.13
2018-04-13T19:10:21.523Z,16.60
2018-04-13T19:12:52.935Z,17.40
2018-04-13T19:15:24.381Z,17.43
2018-04-13T19:17:56.184Z,18.20
2018-04-13T19:20:27.613Z,17.90
2018-04-13T19:23:00.158Z,17.63
2018-04-13T19:25:32.018Z,17.20
2018-04-13T19:28:03.382Z,17.30
2018-04-13T19:30:35.554Z,18.93
2018-04-13T19:33:06.243Z,18.33
2018-04-13T19:35:37.435Z,17.93
2018-04-13T19:38:08.815Z,17.47
2018-04-13T19:40:40.284Z,19.47
2018-04-13T19:43:12.946Z,18.73
2018-04-13T19:45:44.957Z,19.33
2018-04-13T19:48:16.399Z,20.40
2018-04-13T19:50:47.792Z,19.03
2018-04-13T19:53:19.172Z,19.63
2018-04-13T19:55:51.432Z,21.07
2018-04-13T19:58:22.829Z,19.57
2018-04-13T20:00:55.810Z,18.93
2018-04-13T20:03:28.015Z,17.37
2018-04-13T20:05:59.417Z,19.10
2018-04-13T20:08:30.828Z,17.80
2018-04-13T20:11:02.214Z,17.70
2018-04-13T20:13:33.593Z,20.07
2018-04-13T20:16:05.787Z,19.00
2018-04-13T20:18:37.201Z,19.70
2018-04-13T20:21:08.607Z,19.20
2018-04-13T20:23:40.047Z,20.77
2018-04-13T20:26:12.160Z,22.73
2018-04-13T20:28:43.538Z,22.67
2018-04-13T20:31:14.946Z,22.13
2018-04-13T20:33:46.306Z,22.57
2018-04-13T20:36:17.699Z,22.47
2018-04-13T20:38:49.818Z,22.07
2018-04-13T20:41:21.267Z,22.83
2018-04-13T20:43:52.682Z,23.33
2018-04-13T20:46:24.827Z,23.23
2018-04-13T20:48:57.099Z,24.90
2018-04-13T20:51:29.299Z,24.67
2018-04-13T20:54:00.743Z,24.47
2018-04-13T20:56:32.179Z,25.10
2018-04-13T20:59:03.726Z,23.03
2018-04-13T21:01:36.062Z,25.83
2018-04-13T21:04:07.506Z,23.30
2018-04-13T21:06:38.945Z,24.17
2018-04-13T21:09:10.285Z,24.67
2018-04-13T21:11:41.928Z,26.00
2018-04-13T21:14:13.307Z,28.40
2018-04-13T21:16:44.726Z,28.70
2018-04-13T21:19:16.889Z,30.80
2018-04-13T21:21:49.026Z,30.93
2018-04-13T21:24:20.438Z,28.27
2018-04-13T21:26:51.789Z,27.73
2018-04-13T21:29:23.200Z,26.20
2018-04-13T21:31:55.323Z,24.47
2018-04-13T21:34:26.697Z,24.40
2018-04-13T21:36:59.590Z,21.67
2018-04-13T21:39:30.954Z,23.93
2018-04-13T21:42:02.343Z,23.97
2018-04-13T21:44:33.881Z,24.30
2018-04-13T21:47:06.011Z,24.90
2018-04-13T21:49:38.896Z,23.33
2018-04-13T21:52:10.046Z,23.40
2018-04-13T21:54:42.250Z,23.20
2018-04-13T21:57:13.622Z,23.80
2018-04-13T21:59:45.104Z,23.67
2018-04-13T22:02:17.246Z,24.67
2018-04-13T22:04:48.675Z,25.50
2018-04-13T22:07:20.201Z,23.43
2018-04-13T22:09:51.574Z,24.87
2018-04-13T22:12:39.788Z,22.50
2018-04-13T22:15:10.487Z,23.63
2018-04-13T22:17:41.898Z,25.87
2018-04-13T22:20:14.043Z,25.03
2018-04-13T22:22:46.721Z,23.47
2018-04-13T22:25:18.149Z,25.63
2018-04-13T22:27:49.485Z,24.73
2018-04-13T22:30:20.883Z,23.77
2018-04-13T22:32:52.349Z,23.23
2018-04-13T22:35:23.821Z,22.30
2018-04-13T22:37:55.211Z,23.37
2018-04-13T22:40:26.575Z,24.10
2018-04-13T22:42:59.451Z,24.03
2018-04-13T22:45:30.821Z,24.37
2018-04-13T22:48:02.990Z,24.30
2018-04-13T22:50:34.319Z,24.20
2018-04-13T22:53:10.504Z,26.13
2018-04-13T22:55:41.986Z,23.63
2018-04-13T22:58:13.667Z,25.53
2018-04-13T23:00:45.019Z,25.80
2018-04-13T23:03:16.298Z,25.10
2018-04-13T23:05:49.183Z,25.93
2018-04-13T23:08:20.582Z,24.17
2018-04-13T23:10:52.241Z,24.90
2018-04-13T23:13:23.782Z,24.60
2018-04-13T23:15:55.304Z,25.97
2018-04-13T23:18:28.209Z,24.90
2018-04-13T23:20:59.653Z,22.97
2018-04-13T23:23:31.569Z,27.53
2018-04-13T23:26:03.098Z,25.13
2018-04-13T23:28:35.368Z,25.47
2018-04-13T23:31:07.044Z,26.03
2018-04-13T23:33:38.422Z,24.33
2018-04-13T23:36:09.827Z,25.27
2018-04-13T23:38:42.112Z,25.27
2018-04-13T23:41:13.681Z,24.73
2018-04-13T23:43:45.041Z,22.53
2018-04-13T23:46:16.590Z,25.43
2018-04-13T23:48:47.996Z,25.33
2018-04-13T23:51:19.387Z,27.03
2018-04-13T23:53:50.760Z,26.70
2018-04-13T23:56:22.901Z,26.87
2018-04-13T23:58:54.291Z,25.47
